Time;durP1;ratioP1;P1;durP2;ratioP2;P2;SDS_P1;SDS_P2;PMS_P1;PMS_P2;Temp;Humidity;BMP_temperature;BMP_pressure;BME280_temperature;BME280_humidity;BME280_pressure;Samples;Min_cycle;Max_cycle;Signal;HPM_P1;HPM_P2
2022/05/27 00:00:56;;;;;;;8.43;7.73;;;;;;;22.94;78.64;99822.38;5092508;28;20196;-62
2022/05/27 00:03:23;;;;;;;10.90;7.80;;;;;;;22.91;78.73;99825.63;5092514;28;20196;-62
2022/05/27 00:05:51;;;;;;;14.37;8.53;;;;;;;22.82;78.88;99811.78;5092811;28;20225;-62
2022/05/27 00:08:18;;;;;;;14.83;7.80;;;;;;;22.80;78.23;99813.97;5091536;28;20197;-62
2022/05/27 00:10:46;;;;;;;12.50;9.00;;;;;;;22.72;78.64;99809.06;5092433;28;20192;-62
2022/05/27 00:13:13;;;;;;;9.57;8.57;;;;;;;22.64;78.54;99804.16;5092457;28;20290;-62
2022/05/27 00:15:40;;;;;;;9.77;8.87;;;;;;;22.60;78.22;99803.06;5091615;28;20192;-62
2022/05/27 00:18:07;;;;;;;10.13;9.33;;;;;;;22.59;78.57;99806.88;5092439;28;20257;-62
2022/05/27 00:20:35;;;;;;;10.50;8.67;;;;;;;22.54;78.53;99803.31;5092771;28;20195;-62
2022/05/27 00:23:02;;;;;;;9.17;8.47;;;;;;;22.42;78.97;99808.91;5093557;28;20199;-62
2022/05/27 00:25:29;;;;;;;11.60;8.80;;;;;;;22.42;78.75;99811.63;5092635;28;20265;-62
2022/05/27 00:27:57;;;;;;;9.70;8.37;;;;;;;22.53;78.12;99807.91;5091286;28;20566;-63
2022/05/27 00:30:25;;;;;;;15.27;9.67;;;;;;;22.68;77.54;99805.25;5091265;28;20727;-62
2022/05/27 00:32:51;;;;;;;10.97;9.77;;;;;;;22.65;78.15;99805.78;5091829;28;20219;-63
2022/05/27 00:35:18;;;;;;;11.20;8.87;;;;;;;22.63;77.65;99810.66;5091986;28;20195;-62
2022/05/27 00:37:45;;;;;;;10.20;9.23;;;;;;;22.62;77.21;99809.03;5092060;28;20192;-62
2022/05/27 00:40:13;;;;;;;10.03;8.77;;;;;;;22.49;77.82;99804.09;5092450;28;20247;-62
2022/05/27 00:42:40;;;;;;;10.80;8.73;;;;;;;22.48;77.46;99807.91;5092103;28;20200;-62
2022/05/27 00:45:15;;;;;;;9.93;8.93;;;;;;;22.43;77.81;99798.91;5092120;28;20658;-62
2022/05/27 00:47:43;;;;;;;12.03;8.73;;;;;;;22.45;77.70;99800.28;5092100;28;20647;-62
2022/05/27 00:50:14;;;;;;;10.00;9.27;;;;;;;22.33;77.94;99796.97;5092301;28;20254;-62
2022/05/27 00:52:43;;;;;;;12.53;9.00;;;;;;;22.31;78.15;99793.72;5092159;28;20295;-62
2022/05/27 00:55:14;;;;;;;11.47;8.50;;;;;;;22.34;77.82;99790.47;5092018;28;20664;-62
2022/05/27 00:57:45;;;;;;;12.77;8.70;;;;;;;22.23;78.19;99796.94;5092519;28;20184;-63
2022/05/27 01:00:17;;;;;;;10.03;8.80;;;;;;;22.35;77.67;99796.72;5091679;28;20184;-62
2022/05/27 01:02:45;;;;;;;10.83;8.77;;;;;;;22.33;77.63;99796.97;5093117;28;20215;-61
2022/05/27 01:05:15;;;;;;;16.73;8.43;;;;;;;22.21;78.00;99798.28;5092054;28;20188;-62
2022/05/27 01:07:42;;;;;;;11.83;8.73;;;;;;;22.25;77.68;99800.19;5092451;28;20188;-61
2022/05/27 01:10:12;;;;;;;11.33;8.53;;;;;;;22.28;76.95;99801.53;5092995;28;20195;-62
2022/05/27 01:12:54;;;;;;;10.53;8.17;;;;;;;22.21;77.38;99804.50;5094761;28;20220;-62
2022/05/27 01:15:34;;;;;;;13.20;7.60;;;;;;;22.12;77.63;99808.78;5096849;28;20184;-62
2022/05/27 01:18:19;;;;;;;9.50;7.73;;;;;;;22.22;77.33;99794.50;5096569;28;20270;-62
2022/05/27 01:20:54;;;;;;;9.57;8.00;;;;;;;22.35;76.77;99800.25;5096410;28;20222;-62
2022/05/27 01:23:43;;;;;;;8.53;7.33;;;;;;;22.47;76.07;99806.28;5096072;28;20194;-62
2022/05/27 01:26:37;;;;;;;8.87;6.93;;;;;;;22.36;75.98;99796.44;5096096;28;20242;-62
2022/05/27 01:29:28;;;;;;;10.50;7.60;;;;;;;22.20;76.20;99797.47;5095580;28;20731;-62
2022/05/27 01:32:02;;;;;;;13.40;8.10;;;;;;;22.05;76.71;99799.28;5079165;28;20258;-62
2022/05/27 01:34:34;;;;;;;8.17;7.13;;;;;;;21.94;76.94;99795.72;5095584;28;20187;-62
2022/05/27 01:37:07;;;;;;;9.70;7.50;;;;;;;21.87;77.45;99803.25;5095949;28;20179;-62
2022/05/27 01:39:43;;;;;;;10.27;7.60;;;;;;;21.89;77.01;99803.78;5096659;28;20253;-62
2022/05/27 01:42:16;;;;;;;11.87;7.57;;;;;;;21.95;76.78;99797.34;5096369;28;20187;-62
2022/05/27 01:44:49;;;;;;;8.70;7.20;;;;;;;21.88;76.95;99798.66;5096513;28;20183;-62
2022/05/27 01:47:24;;;;;;;11.63;7.83;;;;;;;21.81;77.59;99795.34;5096555;28;20187;-62
2022/05/27 01:49:58;;;;;;;11.17;7.73;;;;;;;21.79;77.52;99797.50;5095356;28;20227;-62
2022/05/27 01:52:30;;;;;;;8.67;7.37;;;;;;;21.79;77.38;99805.59;5095308;28;20550;-63
2022/05/27 01:55:02;;;;;;;8.37;7.27;;;;;;;21.79;77.50;99806.44;5095029;28;20613;-62
2022/05/27 01:57:34;;;;;;;10.50;7.37;;;;;;;21.80;77.34;99812.66;5096042;28;20237;-62
2022/05/27 02:00:08;;;;;;;8.70;7.27;;;;;;;21.82;77.16;99808.63;5095012;28;20724;-62
2022/05/27 02:02:40;;;;;;;9.83;8.33;;;;;;;21.72;77.35;99796.94;5095561;28;20203;-62
2022/05/27 02:05:12;;;;;;;9.87;7.63;;;;;;;21.76;77.58;99809.66;5094969;28;20191;-62
2022/05/27 02:07:43;;;;;;;10.47;7.73;;;;;;;21.90;77.04;99808.13;5094964;28;20180;-63
2022/05/27 02:10:14;;;;;;;13.40;8.43;;;;;;;21.95;76.70;99808.16;5094915;28;20210;-62
2022/05/27 02:12:48;;;;;;;9.80;8.63;;;;;;;21.96;76.72;99811.69;5095302;28;20211;-62
2022/05/27 02:15:19;;;;;;;9.40;7.93;;;;;;;22.04;76.23;99814.69;5094662;28;20610;-62
2022/05/27 02:17:53;;;;;;;13.10;7.53;;;;;;;22.09;75.52;99812.00;5095013;28;20192;-62
2022/05/27 02:20:26;;;;;;;9.90;8.00;;;;;;;22.12;75.76;99808.78;5094567;28;20554;-62
2022/05/27 02:22:57;;;;;;;11.43;7.90;;;;;;;22.12;75.75;99816.06;5094553;28;20203;-62
2022/05/27 02:25:29;;;;;;;14.30;8.93;;;;;;;22.07;76.13;99816.88;5094762;28;20191;-62
2022/05/27 02:28:00;;;;;;;13.33;8.50;;;;;;;22.08;76.04;99818.50;5094253;28;20681;-62
2022/05/27 02:30:31;;;;;;;10.17;8.90;;;;;;;22.04;75.78;99803.06;5094721;28;20245;-62
2022/05/27 02:35:49;;;;;;;10.20;8.43;;;;;;;22.32;75.24;99824.31;5094569;28;20711;-62
2022/05/27 02:38:16;;;;;;;11.27;8.23;;;;;;;22.41;74.83;99822.75;5094150;28;20191;-62
2022/05/27 02:40:52;;;;;;;9.20;8.27;;;;;;;22.35;74.72;99826.50;5094680;28;20185;-62
2022/05/27 02:43:28;;;;;;;11.13;8.17;;;;;;;22.34;74.89;99825.66;5094754;28;20211;-62
2022/05/27 02:46:03;;;;;;;12.00;7.90;;;;;;;22.28;74.92;99824.03;5094313;28;20183;-62
2022/05/27 02:48:37;;;;;;;14.70;8.33;;;;;;;22.19;75.28;99824.78;5094232;28;20184;-62
2022/05/27 02:51:12;;;;;;;11.43;8.30;;;;;;;22.20;75.44;99829.94;5094397;28;20231;-63
2022/05/27 02:53:46;;;;;;;10.77;8.73;;;;;;;22.29;75.08;99822.94;5094924;28;20237;-62
2022/05/27 02:56:20;;;;;;;13.83;8.33;;;;;;;22.19;75.36;99822.91;5094141;28;20260;-62
2022/05/27 02:58:47;;;;;;;8.83;8.10;;;;;;;22.13;75.49;99829.34;5094146;28;20187;-62
2022/05/27 03:01:14;;;;;;;13.00;8.43;;;;;;;22.08;75.56;99823.91;5094146;28;20312;-62
2022/05/27 03:03:42;;;;;;;9.90;8.07;;;;;;;22.07;75.48;99827.72;5093928;28;20276;-62
2022/05/27 03:06:36;;;;;;;9.80;8.37;;;;;;;21.97;75.45;99819.50;5093733;28;20240;-62
2022/05/27 03:09:07;;;;;;;12.63;8.93;;;;;;;21.99;75.80;99828.22;5093831;28;20244;-62
2022/05/27 03:12:02;;;;;;;9.33;8.43;;;;;;;21.96;75.77;99827.91;5094629;28;20188;-62
2022/05/27 03:14:43;;;;;;;9.17;8.43;;;;;;;21.86;75.72;99823.25;5091571;28;20202;-63
2022/05/27 03:17:33;;;;;;;10.93;8.47;;;;;;;21.86;75.95;99822.44;5093421;28;20183;-62
2022/05/27 03:20:26;;;;;;;12.17;8.83;;;;;;;21.92;75.51;99827.63;5093084;28;20183;-62
2022/05/27 03:23:08;;;;;;;10.70;8.13;;;;;;;21.88;75.72;99823.81;5093272;28;20203;-62
2022/05/27 03:25:41;;;;;;;16.00;9.23;;;;;;;22.00;75.15;99832.53;5093427;28;20248;-63
2022/05/27 03:28:13;;;;;;;9.70;8.73;;;;;;;22.07;74.93;99819.59;5093424;28;20188;-62
2022/05/27 03:30:48;;;;;;;9.03;8.17;;;;;;;22.19;74.38;99833.72;5093411;28;20253;-62
2022/05/27 03:33:20;;;;;;;13.70;8.20;;;;;;;22.19;74.59;99828.31;5092978;28;20187;-62
2022/05/27 03:35:54;;;;;;;10.97;8.13;;;;;;;22.30;73.89;99827.28;5093313;28;20194;-62
2022/05/27 03:38:37;;;;;;;11.57;8.60;;;;;;;22.37;73.43;99830.56;5092866;28;20192;-62
2022/05/27 03:41:08;;;;;;;10.20;8.93;;;;;;;22.47;73.48;99836.06;5092951;28;20187;-62
2022/05/27 03:43:36;;;;;;;18.87;8.10;;;;;;;22.61;72.99;99830.94;5093870;28;20300;-62
2022/05/27 03:46:04;;;;;;;11.43;8.63;;;;;;;22.73;72.54;99834.25;5092876;28;20198;-63
2022/05/27 03:48:34;;;;;;;9.53;8.10;;;;;;;22.90;72.18;99835.66;5093101;28;20252;-62
2022/05/27 03:51:09;;;;;;;12.87;8.37;;;;;;;23.14;71.40;99836.78;5093455;28;20223;-62
2022/05/27 03:56:20;;;;;;;9.23;8.03;;;;;;;23.49;70.19;99834.09;5092679;28;20184;-62
2022/05/27 03:58:46;;;;;;;17.40;8.67;;;;;;;23.53;70.33;99828.97;5093068;28;20250;-62
2022/05/27 04:01:13;;;;;;;12.40;7.87;;;;;;;23.80;69.38;99841.16;5093087;28;20245;-63
2022/05/27 04:03:40;;;;;;;19.53;8.93;;;;;;;24.12;67.86;99841.66;5092495;28;20223;-63
2022/05/27 04:06:08;;;;;;;24.50;9.03;;;;;;;24.66;66.35;99841.75;5092406;28;20251;-64
2022/05/27 04:08:34;;;;;;;21.50;9.27;;;;;;;25.22;63.97;99844.97;5093175;28;20195;-63
2022/05/27 04:11:01;;;;;;;12.30;7.87;;;;;;;25.75;62.22;99858.44;5092884;28;20190;-63
2022/05/27 04:13:28;;;;;;;13.80;7.70;;;;;;;26.17;60.66;99849.63;5092830;28;20195;-64
2022/05/27 04:15:55;;;;;;;16.20;7.50;;;;;;;26.59;58.84;99857.88;5092871;28;20274;-63
2022/05/27 04:18:21;;;;;;;15.27;8.10;;;;;;;26.88;57.79;99861.31;5091446;28;20217;-63
2022/05/27 04:20:48;;;;;;;12.10;7.30;;;;;;;27.40;56.12;99858.41;5090299;28;20195;-63
2022/05/27 04:23:16;;;;;;;19.67;7.27;;;;;;;28.04;55.58;99855.66;5090930;28;20268;-64
2022/05/27 04:25:46;;;;;;;7.53;6.77;;;;;;;28.41;52.70;99863.72;5091313;28;20192;-63
2022/05/27 04:28:13;;;;;;;18.53;6.90;;;;;;;28.66;51.29;99865.94;5092170;28;20283;-62
2022/05/27 04:30:41;;;;;;;12.50;7.17;;;;;;;29.06;50.03;99867.84;5091174;28;20684;-65
2022/05/27 04:33:08;;;;;;;9.63;7.50;;;;;;;29.37;49.17;99866.03;5090899;28;20199;-63
2022/05/27 04:35:35;;;;;;;11.97;7.73;;;;;;;29.52;48.56;99862.91;5091876;28;20187;-62
2022/05/27 04:38:02;;;;;;;11.37;7.53;;;;;;;29.73;47.83;99864.06;5091587;28;20188;-68
2022/05/27 04:40:30;;;;;;;17.07;7.43;;;;;;;29.90;47.41;99864.19;5089385;28;20316;-64
2022/05/27 04:42:57;;;;;;;16.97;7.50;;;;;;;30.22;46.06;99863.91;5088932;28;20218;-62
2022/05/27 04:45:23;;;;;;;12.67;7.63;;;;;;;30.68;44.68;99864.22;5090020;28;20195;-65
2022/05/27 04:47:51;;;;;;;8.00;7.07;;;;;;;30.99;43.56;99864.94;5090305;28;20187;-63
2022/05/27 04:50:18;;;;;;;13.03;7.03;;;;;;;31.33;42.81;99864.19;5091569;28;20260;-64
2022/05/27 04:52:45;;;;;;;10.27;7.40;;;;;;;31.88;41.96;99863.19;5092167;28;20191;-65
2022/05/27 04:55:14;;;;;;;9.67;7.33;;;;;;;32.25;40.94;99865.16;5091894;28;20804;-65
2022/05/27 04:57:44;;;;;;;9.27;7.53;;;;;;;33.00;38.68;99845.06;5091661;28;20195;-63
2022/05/27 05:00:14;;;;;;;10.47;6.83;;;;;;;33.37;37.81;99844.16;5092422;28;20241;-66
2022/05/27 05:02:42;;;;;;;11.73;7.03;;;;;;;33.79;36.92;99842.91;5090157;28;20188;-65
2022/05/27 05:05:09;;;;;;;8.50;6.67;;;;;;;34.03;36.76;99848.53;5089054;28;20231;-64
2022/05/27 05:07:40;;;;;;;12.93;6.73;;;;;;;34.35;36.00;99844.09;5091027;28;20191;-64
2022/05/27 05:10:08;;;;;;;16.85;6.70;;;;;;;34.38;35.75;99844.25;5090210;28;20663;-62
2022/05/27 05:12:34;;;;;;;7.40;6.80;;;;;;;34.68;35.01;99839.25;5091708;28;20323;-62
2022/05/27 05:15:02;;;;;;;10.65;6.35;;;;;;;34.89;34.84;99842.72;5091377;28;20652;-61
2022/05/27 05:17:29;;;;;;;7.60;6.43;;;;;;;35.25;34.17;99843.44;5091779;28;20191;-62
2022/05/27 05:19:56;;;;;;;16.83;6.93;;;;;;;35.33;33.59;99844.47;5091141;28;20276;-62
2022/05/27 05:22:23;;;;;;;17.80;7.25;;;;;;;35.06;34.22;99839.69;5091156;28;20191;-62
2022/05/27 05:24:53;;;;;;;10.20;6.72;;;;;;;35.30;34.01;99843.22;5091687;28;20219;-64
2022/05/27 05:27:20;;;;;;;6.93;6.28;;;;;;;35.32;33.42;99842.88;5091904;28;20196;-62
2022/05/27 05:29:46;;;;;;;10.30;6.13;;;;;;;35.37;32.65;99834.31;5091798;28;20197;-62
2022/05/27 05:32:14;;;;;;;10.43;6.47;;;;;;;35.53;32.03;99841.53;5088185;28;20582;-62
2022/05/27 05:34:41;;;;;;;10.23;5.72;;;;;;;35.47;32.65;99833.81;5091748;28;20195;-62
2022/05/27 05:37:08;;;;;;;8.45;6.40;;;;;;;35.07;33.03;99838.56;5090975;28;20195;-63
2022/05/27 05:39:36;;;;;;;9.63;6.50;;;;;;;34.84;33.98;99834.69;5091235;28;20552;-64
2022/05/27 05:42:05;;;;;;;10.35;6.55;;;;;;;34.84;33.42;99834.69;5091079;28;20188;-63
2022/05/27 05:44:33;;;;;;;10.25;6.38;;;;;;;34.85;33.60;99847.31;5092138;28;20219;-62
2022/05/27 05:47:00;;;;;;;7.28;6.63;;;;;;;34.35;34.40;99838.59;5091014;28;20233;-63
2022/05/27 05:49:28;;;;;;;12.07;6.53;;;;;;;34.54;33.45;99839.63;5091069;28;20269;-62
2022/05/27 05:51:58;;;;;;;18.35;6.78;;;;;;;34.32;33.97;99845.59;5091341;28;20272;-63
2022/05/27 05:54:26;;;;;;;11.85;7.03;;;;;;;33.88;34.78;99840.13;5091195;28;20199;-63
2022/05/27 05:56:53;;;;;;;9.23;6.47;;;;;;;33.57;35.61;99837.81;5091670;28;20196;-62
2022/05/27 05:59:22;;;;;;;12.18;7.03;;;;;;;33.29;36.21;99836.72;5094931;28;20253;-62
2022/05/27 06:01:49;;;;;;;7.93;6.47;;;;;;;33.18;35.98;99836.34;5094965;28;20218;-63
2022/05/27 06:04:16;;;;;;;18.77;7.68;;;;;;;33.28;35.64;99838.69;5094393;28;20280;-64
2022/05/27 06:06:44;;;;;;;8.63;6.40;;;;;;;33.45;35.31;99836.94;5094622;28;20274;-62
2022/05/27 06:09:10;;;;;;;17.87;7.23;;;;;;;33.50;35.21;99836.72;5094620;28;20227;-63
2022/05/27 06:11:37;;;;;;;11.02;6.50;;;;;;;33.61;35.18;99835.16;5094927;28;20256;-62
2022/05/27 06:14:05;;;;;;;6.95;6.22;;;;;;;33.93;34.72;99826.09;5094303;28;20199;-62
2022/05/27 06:16:32;;;;;;;10.77;6.80;;;;;;;34.08;34.50;99828.22;5094616;28;20194;-62
2022/05/27 06:18:59;;;;;;;19.90;7.10;;;;;;;34.19;34.65;99834.88;5094544;28;20195;-62
2022/05/27 06:21:25;;;;;;;54.80;9.00;;;;;;;34.07;35.07;99821.06;5094838;28;20202;-62
2022/05/27 06:23:54;;;;;;;11.90;6.30;;;;;;;34.20;34.60;99825.44;5092698;28;20223;-64
2022/05/27 06:26:21;;;;;;;11.77;5.90;;;;;;;34.27;34.11;99829.25;5092612;28;20723;-62
2022/05/27 06:34:24;;;;;;;7.60;6.18;;;;;;;34.03;33.93;99825.66;5093959;28;20190;-62
2022/05/27 06:36:53;;;;;;;8.00;5.65;;;;;;;33.95;34.07;99821.84;5094221;28;20187;-62
2022/05/27 06:39:22;;;;;;;9.73;6.32;;;;;;;33.88;34.20;99823.56;5089588;28;20294;-68
2022/05/27 06:41:50;;;;;;;7.18;6.20;;;;;;;33.98;33.78;99814.84;5090586;28;20240;-63
2022/05/27 06:44:17;;;;;;;10.43;6.35;;;;;;;34.16;33.43;99824.53;5094226;28;20211;-62
2022/05/27 06:46:44;;;;;;;10.05;6.75;;;;;;;33.96;35.16;99817.16;5096477;28;20202;-62
2022/05/27 06:49:12;;;;;;;10.82;6.05;;;;;;;33.72;34.12;99819.81;5114459;28;20278;-62
2022/05/27 06:51:40;;;;;;;17.88;6.38;;;;;;;33.66;33.85;99819.22;5094248;28;20696;-61
2022/05/27 06:54:09;;;;;;;14.02;6.00;;;;;;;33.54;33.56;99802.66;5097431;28;20213;-61
2022/05/27 06:56:39;;;;;;;34.97;7.03;;;;;;;33.83;33.74;99816.31;5114930;28;20194;-61
2022/05/27 06:59:06;;;;;;;12.00;5.63;;;;;;;33.82;33.85;99813.91;5104069;28;20187;-62
2022/05/27 07:01:54;;;;;;;8.15;5.68;;;;;;;34.04;33.59;99817.03;5090941;28;20237;-63
2022/05/27 07:05:11;;;;;;;11.40;5.60;;;;;;;34.27;32.51;99809.94;5088328;28;20203;-61
2022/05/27 07:07:38;;;;;;;13.90;6.03;;;;;;;34.20;33.37;99808.88;5093147;28;20230;-62
2022/05/27 07:10:05;;;;;;;14.45;6.32;;;;;;;34.10;34.05;99801.06;5090121;28;20195;-63
2022/05/27 07:12:33;;;;;;;11.40;5.95;;;;;;;34.27;33.94;99803.59;5091819;28;20651;-62
2022/05/27 07:15:00;;;;;;;14.55;6.00;;;;;;;34.54;33.55;99797.44;5092687;28;20620;-63
2022/05/27 07:17:27;;;;;;;11.95;5.57;;;;;;;34.33;32.92;99794.00;5092628;28;20223;-61
2022/05/27 07:19:53;;;;;;;10.93;5.20;;;;;;;34.05;33.07;99795.78;5092866;28;20187;-62
2022/05/27 07:22:20;;;;;;;17.60;5.82;;;;;;;34.00;33.33;99790.50;5087369;28;20195;-61
2022/05/27 07:24:47;;;;;;;18.85;6.93;;;;;;;34.22;33.43;99792.81;5087274;28;20284;-62
2022/05/27 07:27:14;;;;;;;15.23;5.80;;;;;;;34.33;32.20;99794.00;5090523;28;20199;-65
2022/05/27 07:29:42;;;;;;;5.88;5.20;;;;;;;34.23;32.69;99780.63;5089967;28;20187;-65
2022/05/27 07:32:09;;;;;;;7.93;5.10;;;;;;;34.20;32.62;99787.63;5091486;28;20191;-62
2022/05/27 07:34:36;;;;;;;16.05;5.38;;;;;;;34.42;32.53;99783.63;5092003;28;20195;-63
2022/05/27 07:37:03;;;;;;;7.82;4.55;;;;;;;34.55;32.19;99785.22;5092203;28;20249;-63
2022/05/27 07:39:29;;;;;;;8.52;4.80;;;;;;;34.67;32.30;99785.22;5091617;28;20191;-63
2022/05/27 07:41:59;;;;;;;6.00;4.38;;;;;;;34.78;31.69;99780.81;5090546;28;20670;-67
2022/05/27 07:44:25;;;;;;;5.55;3.83;;;;;;;34.91;30.66;99780.47;5092070;28;20219;-63
2022/05/27 07:46:55;;;;;;;14.07;3.50;;;;;;;34.83;29.13;99784.16;5091067;28;20244;-63
2022/05/27 07:49:22;;;;;;;80.57;9.32;;;;;;;35.01;29.37;99782.75;5092094;28;20219;-62
2022/05/27 07:51:49;;;;;;;7.68;3.50;;;;;;;35.04;28.95;99778.47;5092417;28;20202;-62
2022/05/27 07:54:15;;;;;;;5.32;3.42;;;;;;;35.16;29.04;99775.66;5092905;28;20195;-64
2022/05/27 07:56:42;;;;;;;9.43;3.45;;;;;;;35.18;28.60;99773.34;5093161;28;20263;-63
2022/05/27 07:59:09;;;;;;;5.78;3.55;;;;;;;35.10;28.57;99764.06;5092319;28;20199;-63
2022/05/27 08:01:39;;;;;;;15.50;3.42;;;;;;;34.88;28.65;99770.13;5092328;28;20195;-63
2022/05/27 08:04:08;;;;;;;3.17;2.90;;;;;;;34.92;29.61;99770.22;5092062;28;20243;-64
2022/05/27 08:06:34;;;;;;;5.22;3.00;;;;;;;34.75;29.78;99763.00;5090779;28;20191;-64
2022/05/27 08:09:02;;;;;;;4.10;3.20;;;;;;;34.92;29.54;99765.50;5090275;28;20195;-66
2022/05/27 08:11:29;;;;;;;3.58;3.28;;;;;;;34.99;29.96;99760.19;5090388;28;20658;-65
2022/05/27 08:13:55;;;;;;;3.85;3.55;;;;;;;35.08;29.83;99760.03;5089878;28;20260;-66
2022/05/27 08:16:23;;;;;;;2.97;2.53;;;;;;;34.85;27.74;99742.38;5089641;28;20724;-66
2022/05/27 08:18:49;;;;;;;5.22;3.08;;;;;;;34.96;30.30;99752.63;5090460;28;20202;-67
2022/05/27 08:21:18;;;;;;;9.55;3.85;;;;;;;35.12;29.83;99747.13;5088017;28;20195;-65
2022/05/27 08:23:45;;;;;;;13.00;4.13;;;;;;;34.95;27.85;99752.97;5091380;28;20192;-66
2022/05/27 08:26:11;;;;;;;7.68;3.50;;;;;;;34.94;29.06;99756.88;5090400;28;20191;-65
2022/05/27 08:28:38;;;;;;;38.75;5.40;;;;;;;34.88;29.61;99741.69;5091011;28;20199;-66
2022/05/27 08:31:05;;;;;;;14.27;3.70;;;;;;;34.84;28.62;99740.78;5091927;28;20187;-66
2022/05/27 08:38:58;;;;;;;9.25;3.13;;;;;;;34.97;27.67;99725.78;5111196;28;20271;-65
2022/05/27 08:41:38;;;;;;;3.60;2.95;;;;;;;34.96;28.61;99732.47;5097303;28;20213;-71
2022/05/27 08:44:21;;;;;;;2.47;2.28;;;;;;;34.89;26.36;99733.06;5091159;28;20271;-67
2022/05/27 08:47:01;;;;;;;3.92;3.08;;;;;;;35.10;27.11;99722.63;5091412;28;20206;-68
2022/05/27 08:49:32;;;;;;;4.55;2.15;;;;;;;35.41;26.57;99721.91;5090414;28;20223;-66
2022/05/27 08:52:06;;;;;;;13.23;3.00;;;;;;;35.43;27.74;99719.63;5091795;28;20245;-66
2022/05/27 08:54:40;;;;;;;4.68;2.63;;;;;;;35.68;27.38;99719.09;5090853;28;20196;-67
2022/05/27 08:59:57;;;;;;;6.50;2.50;;;;;;;35.94;26.90;99713.06;5090636;28;20175;-66
2022/05/27 09:02:30;;;;;;;32.05;4.30;;;;;;;35.98;26.08;99713.94;5090871;28;20180;-66
2022/05/27 09:05:07;;;;;;;17.20;3.00;;;;;;;35.83;26.39;99718.31;5091447;28;20241;-67
2022/05/27 09:07:43;;;;;;;12.10;3.70;;;;;;;35.89;25.43;99713.31;5098804;28;20198;-66
2022/05/27 09:10:14;;;;;;;4.95;2.38;;;;;;;35.48;25.73;99716.59;5111258;28;20270;-66
2022/05/27 09:12:51;;;;;;;3.97;2.30;;;;;;;35.44;25.62;99712.94;5111946;28;20247;-67
2022/05/27 09:15:44;;;;;;;12.65;2.85;;;;;;;34.96;25.95;99704.84;5110318;28;20258;-69
2022/05/27 09:18:26;;;;;;;21.73;5.13;;;;;;;35.31;26.62;99697.59;5101643;28;20183;-65
2022/05/27 09:21:06;;;;;;;7.78;2.97;;;;;;;35.46;27.18;99688.50;5090774;28;20183;-65
2022/05/27 09:23:52;;;;;;;3.92;2.58;;;;;;;35.12;26.61;99694.66;5090069;28;20183;-68
2022/05/27 09:26:27;;;;;;;3.47;2.40;;;;;;;34.78;27.42;99686.97;5090931;28;20179;-66
2022/05/27 09:29:05;;;;;;;4.63;2.63;;;;;;;34.46;26.99;99676.94;5090971;28;20187;-65
2022/05/27 09:31:37;;;;;;;2.47;2.10;;;;;;;34.36;27.56;99674.66;5089687;28;20187;-65
2022/05/27 09:34:04;;;;;;;4.15;2.20;;;;;;;34.30;27.43;99673.25;5095148;28;20186;-64
2022/05/27 09:36:36;;;;;;;4.07;2.50;;;;;;;33.55;26.95;99665.69;5094972;28;20736;-64
2022/05/27 09:39:06;;;;;;;2.40;2.20;;;;;;;33.77;26.86;99657.78;5095496;28;20571;-64
2022/05/27 09:41:41;;;;;;;2.47;2.28;;;;;;;33.52;26.90;99660.84;5094640;28;20240;-64
2022/05/27 09:44:17;;;;;;;2.58;2.20;;;;;;;33.60;27.55;99646.16;5093643;28;20187;-64
2022/05/27 09:46:44;;;;;;;2.78;2.55;;;;;;;33.91;28.41;99640.91;5093018;28;20214;-64
2022/05/27 09:49:11;;;;;;;3.17;2.85;;;;;;;33.95;28.50;99647.31;5093321;28;20248;-65
2022/05/27 09:51:38;;;;;;;3.10;2.70;;;;;;;33.85;28.47;99647.81;5093161;28;20183;-64
2022/05/27 09:54:24;;;;;;;3.45;3.13;;;;;;;33.56;28.34;99636.97;5092655;28;20620;-64
2022/05/27 09:57:02;;;;;;;3.00;2.55;;;;;;;33.68;28.01;99648.00;5093601;28;20606;-65
2022/05/27 09:59:36;;;;;;;3.60;2.20;;;;;;;33.88;27.23;99644.38;5093965;28;20184;-64
2022/05/27 10:02:19;;;;;;;3.05;2.72;;;;;;;34.00;27.88;99638.84;5093460;28;20252;-67
2022/05/27 10:04:54;;;;;;;7.15;2.90;;;;;;;33.82;28.02;99634.69;5094325;28;20755;-64
2022/05/27 10:07:34;;;;;;;7.95;3.17;;;;;;;33.75;27.80;99620.66;5096076;28;20183;-65
2022/05/27 10:10:24;;;;;;;7.50;2.80;;;;;;;33.77;27.84;99623.88;5115335;28;20247;-64
2022/05/27 10:12:54;;;;;;;8.50;2.45;;;;;;;33.91;28.76;99616.91;5114185;28;20287;-70
2022/05/27 10:15:27;;;;;;;6.70;3.80;;;;;;;34.23;28.30;99621.44;5114553;28;20201;-64
2022/05/27 10:17:54;;;;;;;5.88;3.50;;;;;;;34.43;27.86;99619.69;5107128;28;20233;-65
2022/05/27 10:20:33;;;;;;;5.15;2.65;;;;;;;34.44;27.21;99610.22;5092398;28;20708;-65
2022/05/27 10:23:03;;;;;;;4.47;2.97;;;;;;;33.46;28.31;99607.13;5092895;28;20183;-65
2022/05/27 10:25:34;;;;;;;4.75;2.75;;;;;;;33.41;27.40;99596.31;5092302;28;20255;-63
2022/05/27 10:28:04;;;;;;;14.73;3.58;;;;;;;34.00;27.84;99598.25;5092441;28;20570;-65
2022/05/27 10:30:33;;;;;;;4.18;2.95;;;;;;;34.15;27.77;99597.56;5088717;28;20192;-64
2022/05/27 10:33:17;;;;;;;24.83;3.90;;;;;;;34.51;27.29;99586.44;5093264;28;20191;-63
2022/05/27 10:35:43;;;;;;;3.53;2.72;;;;;;;34.36;26.88;99583.59;5093233;28;20226;-64
2022/05/27 10:38:42;;;;;;;5.55;2.72;;;;;;;34.76;27.12;99592.63;5093820;28;20203;-65
2022/05/27 10:41:19;;;;;;;5.30;2.53;;;;;;;34.54;26.64;99571.13;5089536;28;20199;-63
2022/05/27 10:44:01;;;;;;;3.80;3.50;;;;;;;34.95;26.41;99573.47;5093445;28;20274;-64
2022/05/27 10:46:31;;;;;;;6.00;2.53;;;;;;;34.89;25.78;99572.09;5094089;28;20207;-63
2022/05/27 10:49:28;;;;;;;4.63;2.75;;;;;;;34.70;26.02;99578.25;5093985;28;20192;-63
2022/05/27 10:52:09;;;;;;;5.00;3.15;;;;;;;34.47;25.54;99576.44;5093715;28;20184;-65
2022/05/27 10:54:47;;;;;;;5.00;3.05;;;;;;;34.81;25.58;99559.25;5093378;28;20555;-63
2022/05/27 11:03:28;;;;;;;8.20;5.18;;;;;;;35.15;27.84;99539.25;5070495;28;20253;-63
2022/05/27 11:06:16;;;;;;;10.27;3.22;;;;;;;34.80;26.69;99546.63;5072076;28;20644;-63
2022/05/27 11:08:54;;;;;;;5.53;2.95;;;;;;;34.72;27.00;99533.75;5071302;28;20652;-63
2022/05/27 11:11:31;;;;;;;5.43;3.08;;;;;;;34.77;26.04;99537.06;5071402;28;20192;-63
2022/05/27 11:17:08;;;;;;;5.53;2.83;;;;;;;34.59;27.06;99530.28;5071187;28;20199;-63
2022/05/27 11:19:51;;;;;;;8.82;2.92;;;;;;;34.47;26.25;99543.31;5086930;28;20275;-64
2022/05/27 11:22:28;;;;;;;12.32;3.63;;;;;;;34.58;26.65;99538.91;5105170;28;20673;-63
2022/05/27 11:25:27;;;;;;;14.32;3.25;;;;;;;34.58;25.14;99536.13;5113002;28;20206;-60
2022/05/27 11:28:47;;;;;;;8.57;3.03;;;;;;;34.70;27.13;99536.84;5109863;28;20183;-66
2022/05/27 11:31:25;;;;;;;6.15;2.53;;;;;;;34.61;26.01;99527.94;5110657;28;20247;-62
2022/05/27 11:34:09;;;;;;;8.23;2.53;;;;;;;34.79;25.99;99531.19;5092313;28;20184;-74
2022/05/27 11:37:04;;;;;;;7.88;3.00;;;;;;;34.93;25.62;99526.03;5071543;28;20200;-72
2022/05/27 11:39:57;;;;;;;3.85;2.55;;;;;;;34.89;23.88;99527.91;5072764;28;20196;-78
2022/05/27 11:42:55;;;;;;;9.65;2.85;;;;;;;34.69;24.39;99510.41;5071682;28;20189;-79
2022/05/27 11:45:24;;;;;;;18.13;3.88;;;;;;;34.59;25.43;99513.72;5049692;28;20269;-69
2022/05/27 11:48:01;;;;;;;6.38;2.90;;;;;;;34.98;25.30;99503.72;5071767;28;20622;-71
2022/05/27 11:51:00;;;;;;;14.15;3.15;;;;;;;35.37;24.65;99499.94;5072981;28;20692;-68
2022/05/27 11:53:43;;;;;;;9.48;2.47;;;;;;;35.64;25.38;99487.94;5076785;28;20281;-68
2022/05/27 11:56:17;;;;;;;9.20;3.28;;;;;;;35.67;24.28;99493.53;5080648;28;20204;-71
2022/05/27 11:58:55;;;;;;;4.65;2.92;;;;;;;35.49;24.56;99491.53;5070705;28;20640;-70
2022/05/27 12:01:35;;;;;;;4.93;2.55;;;;;;;35.54;24.17;99477.44;5084262;28;20191;-71
2022/05/27 12:04:10;;;;;;;9.02;2.95;;;;;;;35.56;24.38;99475.13;5090925;28;20183;-69
2022/05/27 12:06:44;;;;;;;6.07;3.08;;;;;;;35.48;24.98;99490.72;5090225;28;20267;-69
2022/05/27 12:09:19;;;;;;;9.15;3.17;;;;;;;35.31;25.64;99474.56;5089347;28;20763;-69
2022/05/27 12:11:50;;;;;;;3.45;3.10;;;;;;;35.41;25.00;99484.25;5090592;28;20240;-70
2022/05/27 12:14:25;;;;;;;6.55;2.83;;;;;;;35.33;25.97;99476.97;5090744;28;20187;-70
2022/05/27 12:16:53;;;;;;;8.85;3.50;;;;;;;35.13;25.72;99472.50;5090886;28;20274;-70
2022/05/27 12:19:25;;;;;;;10.52;4.05;;;;;;;34.85;25.72;99471.81;5090579;28;20191;-71
2022/05/27 12:22:02;;;;;;;6.10;3.17;;;;;;;35.00;25.85;99468.25;5090610;28;20304;-71